Ince Atlantic — TCYW — position and weather

sailwx.info

Track history (hours):
 
Tides and Currents Weather Stations Pressure Air Temp Water Temp Dewpoint Dewpoint Depression Visibility Wind Speed Wind Dir Waves Ship Positions

Ince Atlantic

Last reported at 2018-Jan-30 02:01 UTC. Time now 2018-Feb-18 20:39 UTC.
Position N 37°34' E 025°55'.
Warning: this ship's position is 19 days out of date.

Length 185 m; draft 9.9 m.

Type: Cargo ship. MMSI: 271000620.

Date/timePositionNaut miles runAvg speedWind from/ knotsBaromVisibWave heightAir tempDewpointWater temp
2018-Jan-30 02:01N 37°34' E 025°55'012.3
2018-Jan-30 02:00N 37°35' E 025°55'244 9.9
2018-Jan-29 01:13N 40°56' E 028°53'210.0
2018-Jan-29 01:00N 40°57' E 028°56'2 0.1
2018-Jan-27 16:53N 40°59' E 028°57'1 3.5
2018-Jan-27 16:30N 40°58' E 028°58'413 8.1
2018-Jan-25 13:33N 44°23' E 037°07'112.4
2018-Jan-25 13:29N 44°23' E 037°08'612.2
2018-Jan-25 13:00N 44°25' E 037°16'612.1
2018-Jan-25 12:30N 44°27' E 037°24'511.0
2018-Jan-25 12:00N 44°29' E 037°31'612.2
2018-Jan-25 11:30N 44°32' E 037°38'612.6
2018-Jan-25 11:00N 44°35' E 037°46'5 9.9
2018-Jan-25 10:30N 44°39' E 037°50'2 3.6
2018-Jan-25 09:59N 44°41' E 037°52'0 0.1
2018-Jan-25 09:29N 44°41' E 037°52'0 0.1
2018-Jan-25 08:59N 44°41' E 037°52'0 0.1
2018-Jan-25 08:29N 44°41' E 037°52'0 0.1
2018-Jan-25 07:59N 44°41' E 037°52'0 0.2
2018-Jan-25 07:29N 44°41' E 037°51'0 0.0
2018-Jan-25 06:59N 44°41' E 037°51'0 0.2
2018-Jan-25 06:29N 44°41' E 037°52'0 0.0
2018-Jan-25 05:59N 44°41' E 037°52'0 0.0
2018-Jan-25 05:29N 44°41' E 037°52'0 0.1
2018-Jan-25 04:59N 44°41' E 037°52'0 0.1
2018-Jan-25 04:29N 44°41' E 037°51'0 0.1
2018-Jan-25 03:59N 44°41' E 037°52'0 0.0
2018-Jan-25 03:29N 44°41' E 037°52'0 0.1
2018-Jan-25 02:59N 44°41' E 037°52'0 0.0
2018-Jan-25 02:29N 44°41' E 037°52'0 0.3
2018-Jan-25 01:59N 44°41' E 037°52'0 0.1
2018-Jan-25 01:29N 44°41' E 037°52'0 0.2
2018-Jan-25 00:59N 44°41' E 037°52'0 0.2
2018-Jan-25 00:30N 44°41' E 037°52'1 2.4
2018-Jan-25 00:00N 44°42' E 037°50'2 5.0
2018-Jan-24 23:30N 44°43' E 037°48'1 1.1
2018-Jan-24 23:00N 44°44' E 037°47'0 0.0
2018-Jan-24 22:29N 44°44' E 037°47'0 0.0
2018-Jan-24 21:59N 44°44' E 037°47'0 0.0
2018-Jan-24 21:29N 44°44' E 037°47'0 0.0
2018-Jan-24 20:59N 44°44' E 037°47'0 0.0
2018-Jan-24 20:29N 44°44' E 037°47'0 0.0
2018-Jan-24 19:59N 44°44' E 037°47'0 0.0
2018-Jan-24 19:29N 44°44' E 037°47'0 0.0
2018-Jan-24 18:59N 44°44' E 037°47'0 0.0
2018-Jan-24 18:29N 44°44' E 037°47'0 0.0
2018-Jan-24 17:59N 44°44' E 037°47'0 0.0
2018-Jan-24 17:29N 44°44' E 037°47'0 0.0
2018-Jan-24 16:59N 44°44' E 037°47'0 0.0
2018-Jan-24 16:29N 44°44' E 037°47'0 0.0
2018-Jan-24 15:59N 44°44' E 037°47'0 0.0
2018-Jan-24 15:29N 44°44' E 037°47'0 0.0
2018-Jan-24 14:58N 44°44' E 037°47'0 0.0
2018-Jan-24 14:30N 44°44' E 037°47'0 0.0
2018-Jan-24 14:00N 44°44' E 037°47'0 0.0
2018-Jan-24 13:30N 44°44' E 037°47'0 0.0
2018-Jan-24 13:00N 44°44' E 037°47'0 0.0
2018-Jan-24 12:30N 44°44' E 037°47'0 0.0
2018-Jan-24 12:00N 44°44' E 037°47'0 0.0
2018-Jan-24 11:30N 44°44' E 037°47'0 0.0
2018-Jan-24 11:00N 44°44' E 037°47'0 0.0
2018-Jan-24 10:30N 44°44' E 037°47'0 0.0
2018-Jan-24 10:00N 44°44' E 037°47'0 0.0
2018-Jan-24 09:30N 44°44' E 037°47'0 0.0
2018-Jan-24 09:00N 44°44' E 037°47'0 0.0
2018-Jan-24 08:30N 44°44' E 037°47'0 0.0
2018-Jan-24 08:00N 44°44' E 037°47'0 0.0
2018-Jan-24 07:30N 44°44' E 037°47'0 0.0
2018-Jan-24 07:00N 44°44' E 037°47'0 0.0
2018-Jan-24 06:30N 44°44' E 037°47'0 0.0
2018-Jan-24 06:00N 44°44' E 037°47'0 0.0
2018-Jan-24 05:30N 44°44' E 037°47'0 0.0
2018-Jan-24 05:00N 44°44' E 037°47'0 0.0
2018-Jan-24 04:30N 44°44' E 037°47'0 0.0
2018-Jan-24 04:00N 44°44' E 037°47'0 0.0
2018-Jan-24 03:30N 44°44' E 037°47'0 0.0
2018-Jan-24 03:00N 44°44' E 037°47'0 0.0
2018-Jan-24 02:30N 44°44' E 037°47'0 0.0
2018-Jan-24 02:00N 44°44' E 037°47'0 0.0
2018-Jan-24 01:30N 44°44' E 037°47'0 0.0
2018-Jan-24 01:00N 44°44' E 037°47'0 0.0
2018-Jan-24 00:30N 44°44' E 037°47'0 0.0
2018-Jan-24 00:00N 44°44' E 037°47'0 0.0
2018-Jan-23 23:30N 44°44' E 037°47'0 0.0
2018-Jan-23 23:00N 44°44' E 037°47'0 0.0
2018-Jan-23 22:30N 44°44' E 037°47'0 0.0
2018-Jan-23 22:00N 44°44' E 037°47'0 0.0
2018-Jan-23 21:27N 44°44' E 037°47'0 0.0
2018-Jan-23 21:00N 44°44' E 037°47'0 0.0
2018-Jan-23 20:30N 44°44' E 037°47'0 0.0
2018-Jan-23 20:00N 44°44' E 037°47'0 0.0
2018-Jan-23 19:30N 44°44' E 037°47'0 0.0
2018-Jan-23 19:00N 44°44' E 037°47'0 0.0
2018-Jan-23 18:30N 44°44' E 037°47'0 0.0
2018-Jan-23 18:00N 44°44' E 037°47'0 0.0
2018-Jan-23 17:30N 44°44' E 037°47'0 0.0
2018-Jan-23 17:00N 44°44' E 037°47'0 0.0
2018-Jan-23 16:30N 44°44' E 037°47'0 0.0
2018-Jan-23 16:00N 44°44' E 037°47'0 0.0
2018-Jan-23 15:30N 44°44' E 037°47'0 0.0
2018-Jan-23 15:00N 44°44' E 037°47'0 0.0
2018-Jan-23 14:27N 44°44' E 037°47'0 0.0
2018-Jan-23 14:00N 44°44' E 037°47'0 0.0
2018-Jan-23 13:30N 44°44' E 037°47'0 0.0
2018-Jan-23 13:00N 44°44' E 037°47'0 0.0
2018-Jan-23 12:30N 44°44' E 037°47'0 0.0
2018-Jan-23 12:00N 44°44' E 037°47'0 0.0
2018-Jan-23 11:30N 44°44' E 037°47'0 0.0
2018-Jan-23 11:00N 44°44' E 037°47'0 0.0
2018-Jan-23 10:30N 44°44' E 037°47'0 0.0
2018-Jan-23 10:00N 44°44' E 037°47'0 0.0
2018-Jan-23 09:30N 44°44' E 037°47'0 0.0
2018-Jan-23 09:00N 44°44' E 037°47'0 0.0
2018-Jan-23 08:30N 44°44' E 037°47'0 0.0
2018-Jan-23 08:00N 44°44' E 037°47'0 0.0
2018-Jan-23 07:30N 44°44' E 037°47'0 0.0
2018-Jan-23 07:00N 44°44' E 037°47'0 0.0
2018-Jan-23 06:30N 44°44' E 037°47'0 0.0
2018-Jan-23 06:00N 44°44' E 037°47'0 0.0
2018-Jan-23 05:30N 44°44' E 037°47'0 0.0
2018-Jan-23 05:00N 44°44' E 037°47'0 0.0
2018-Jan-23 04:30N 44°44' E 037°47'0 0.0
2018-Jan-23 03:57N 44°44' E 037°47'0 0.0
2018-Jan-23 03:27N 44°44' E 037°47'0 0.0
2018-Jan-23 03:00N 44°44' E 037°47'0 0.0
2018-Jan-23 02:30N 44°44' E 037°47'0 0.0
2018-Jan-23 02:00N 44°44' E 037°47'0 0.0
2018-Jan-23 01:30N 44°44' E 037°47'0 0.0
2018-Jan-23 01:00N 44°44' E 037°47'0 0.0
2018-Jan-23 00:30N 44°44' E 037°47'0 0.0
2018-Jan-23 00:00N 44°44' E 037°47'0 0.0
2018-Jan-22 23:30N 44°44' E 037°47'0 0.0
2018-Jan-22 23:00N 44°44' E 037°47'0 0.0
2018-Jan-22 22:30N 44°44' E 037°47'0 0.0
2018-Jan-22 22:00N 44°44' E 037°47'0 0.0
2018-Jan-22 21:30N 44°44' E 037°47'0 0.0
2018-Jan-22 21:00N 44°44' E 037°47'0 0.0
2018-Jan-22 20:30N 44°44' E 037°47'0 0.0
2018-Jan-22 20:00N 44°44' E 037°47'0 0.0
2018-Jan-22 19:30N 44°44' E 037°47'0 0.0
2018-Jan-22 19:00N 44°44' E 037°47'0 0.0
2018-Jan-22 18:30N 44°44' E 037°47'0 0.0
2018-Jan-22 17:57N 44°44' E 037°47'0 0.0
2018-Jan-22 17:30N 44°44' E 037°47'0 0.0
2018-Jan-22 17:00N 44°44' E 037°47'0 0.0
2018-Jan-22 16:30N 44°44' E 037°47'0 0.0
2018-Jan-22 16:00N 44°44' E 037°47'1 2.0
2018-Jan-22 15:31N 44°43' E 037°48'3 6.9
2018-Jan-22 15:00N 44°40' E 037°50'2 4.1
2018-Jan-22 14:30N 44°38' E 037°51'1 1.7
2018-Jan-22 14:00N 44°37' E 037°52'1 2.1
2018-Jan-22 13:30N 44°36' E 037°52'1 2.5
2018-Jan-22 13:00N 44°35' E 037°52'2 4.5
2018-Jan-22 12:30N 44°34' E 037°55'1 1.9
2018-Jan-22 12:00N 44°35' E 037°55'0 0.0
2018-Jan-22 11:30N 44°35' E 037°55'0 0.0
2018-Jan-22 10:57N 44°35' E 037°55'0 0.1
2018-Jan-22 10:30N 44°35' E 037°55'0 0.0
2018-Jan-22 10:00N 44°35' E 037°55'0 0.0
2018-Jan-22 09:30N 44°35' E 037°55'0 0.0
2018-Jan-22 09:00N 44°35' E 037°55'0 0.0
2018-Jan-22 08:30N 44°35' E 037°55'0 0.0
2018-Jan-22 08:00N 44°35' E 037°55'0 0.0
2018-Jan-22 07:30N 44°35' E 037°55'0 0.0
2018-Jan-22 07:00N 44°35' E 037°55'0 0.0
2018-Jan-22 06:30N 44°35' E 037°55'0 0.1
2018-Jan-22 06:00N 44°35' E 037°55'0 0.0
2018-Jan-22 05:30N 44°35' E 037°55'0 0.0
2018-Jan-22 05:00N 44°35' E 037°55'0 0.1
2018-Jan-22 04:30N 44°35' E 037°55'0 0.1
2018-Jan-22 04:00N 44°35' E 037°55'0 0.0
2018-Jan-22 03:30N 44°35' E 037°55'0 0.0
2018-Jan-22 03:00N 44°35' E 037°55'0 0.0
2018-Jan-22 02:30N 44°35' E 037°55'0 0.2
2018-Jan-22 02:00N 44°35' E 037°55'0 0.1
2018-Jan-22 01:30N 44°35' E 037°56'0 0.1
2018-Jan-22 01:00N 44°35' E 037°56'0 0.1
2018-Jan-22 00:30N 44°35' E 037°56'0 0.0
2018-Jan-22 00:00N 44°35' E 037°56'0 0.0
2018-Jan-21 23:30N 44°35' E 037°56'0 0.0
2018-Jan-21 23:00N 44°35' E 037°56'0 0.0
2018-Jan-21 22:30N 44°35' E 037°56'0 0.0
2018-Jan-21 22:00N 44°35' E 037°56'0 0.1
2018-Jan-21 21:30N 44°35' E 037°56'0 0.0
2018-Jan-21 21:00N 44°35' E 037°56'0 0.0
2018-Jan-21 20:30N 44°35' E 037°56'0 0.0
2018-Jan-21 20:00N 44°35' E 037°56'0 0.0
2018-Jan-21 19:30N 44°35' E 037°56'0 0.0
2018-Jan-21 19:00N 44°35' E 037°56'0 0.1
2018-Jan-21 18:30N 44°35' E 037°56'0 0.0
2018-Jan-21 18:00N 44°35' E 037°56'0 0.0
2018-Jan-21 17:30N 44°35' E 037°56'0 0.0
2018-Jan-21 17:00N 44°35' E 037°56'0 0.0
2018-Jan-21 16:27N 44°35' E 037°56'0 0.0
2018-Jan-21 16:00N 44°35' E 037°56'0 0.0
2018-Jan-21 15:30N 44°35' E 037°56'0 0.1
2018-Jan-21 15:00N 44°35' E 037°56'0 0.0
2018-Jan-21 14:30N 44°35' E 037°56'0 0.1
2018-Jan-21 14:00N 44°35' E 037°56'0 0.1
2018-Jan-21 13:30N 44°35' E 037°56'0 0.1
2018-Jan-21 13:00N 44°35' E 037°56'0 0.1
2018-Jan-21 12:30N 44°35' E 037°56'0 0.0
2018-Jan-21 12:00N 44°35' E 037°56'0 0.0
2018-Jan-21 11:30N 44°35' E 037°56'0 0.1
2018-Jan-21 11:00N 44°35' E 037°56'0 0.1
2018-Jan-21 10:30N 44°35' E 037°56'0 0.0
2018-Jan-21 10:00N 44°35' E 037°56'0 0.1
2018-Jan-21 09:30N 44°35' E 037°56'0 0.1
2018-Jan-21 09:00N 44°35' E 037°56'0 0.1
2018-Jan-21 08:30N 44°35' E 037°56'0 0.0
2018-Jan-21 08:00N 44°35' E 037°56'0 0.1
2018-Jan-21 07:30N 44°35' E 037°55'0 0.0
2018-Jan-21 07:00N 44°35' E 037°55'0 0.0
2018-Jan-21 06:30N 44°35' E 037°55'0 0.0
2018-Jan-21 06:00N 44°35' E 037°55'0 0.0
2018-Jan-21 05:30N 44°35' E 037°55'0 0.1
2018-Jan-21 05:00N 44°35' E 037°55'0 0.1
2018-Jan-21 04:30N 44°35' E 037°55'0 0.0
2018-Jan-21 04:00N 44°35' E 037°55'0 0.1
2018-Jan-21 03:30N 44°35' E 037°55'0 0.0
2018-Jan-21 03:00N 44°35' E 037°55'0 0.0
2018-Jan-21 02:30N 44°35' E 037°55'0 0.1
2018-Jan-21 02:00N 44°35' E 037°55'0 0.0
2018-Jan-21 01:30N 44°35' E 037°55'0 0.0
2018-Jan-21 01:00N 44°35' E 037°55'0 0.1
2018-Jan-21 00:30N 44°35' E 037°55'0 0.1
2018-Jan-20 23:58N 44°35' E 037°55'0 0.1
2018-Jan-20 23:28N 44°35' E 037°55'0 0.0
2018-Jan-20 22:58N 44°35' E 037°55'0 0.1
2018-Jan-20 22:28N 44°35' E 037°55'0 0.0
2018-Jan-20 21:58N 44°35' E 037°55'0 0.1
2018-Jan-20 21:28N 44°35' E 037°55'0 0.1
2018-Jan-20 20:58N 44°35' E 037°55'0 0.0
2018-Jan-20 20:28N 44°35' E 037°55'0 0.1
2018-Jan-20 19:58N 44°35' E 037°55'0 0.0
2018-Jan-20 19:28N 44°35' E 037°55'0 0.1
2018-Jan-20 18:58N 44°35' E 037°55'0 0.1
2018-Jan-20 18:28N 44°35' E 037°55'0 0.1
2018-Jan-20 17:58N 44°35' E 037°55'0 0.1
2018-Jan-20 17:28N 44°35' E 037°55'0 0.0
2018-Jan-20 16:58N 44°35' E 037°55'0 0.1
2018-Jan-20 16:28N 44°35' E 037°55'0 0.0
2018-Jan-20 15:58N 44°35' E 037°55'0 0.0
2018-Jan-20 15:28N 44°35' E 037°55'0 0.1
2018-Jan-20 14:58N 44°35' E 037°55'0 0.0
2018-Jan-20 14:28N 44°35' E 037°55'0 0.0
2018-Jan-20 13:58N 44°35' E 037°55'0 0.0
2018-Jan-20 13:28N 44°35' E 037°55'0 0.1
2018-Jan-20 12:58N 44°35' E 037°55'0 0.0
2018-Jan-20 12:25N 44°35' E 037°55'0 0.0
2018-Jan-20 11:58N 44°35' E 037°55'0 0.0
2018-Jan-20 11:28N 44°35' E 037°55'0 0.0
2018-Jan-20 10:58N 44°35' E 037°55'0 0.0
2018-Jan-20 10:28N 44°35' E 037°55'0 0.1
2018-Jan-20 09:58N 44°35' E 037°56'0 0.0
2018-Jan-20 09:28N 44°35' E 037°55'0 0.0
2018-Jan-20 08:58N 44°35' E 037°55'0 0.0
2018-Jan-20 08:28N 44°35' E 037°55'0 0.0
2018-Jan-20 07:58N 44°35' E 037°56'0 0.1
2018-Jan-20 07:28N 44°35' E 037°56'0 0.1
2018-Jan-20 06:58N 44°35' E 037°56'0 0.0
2018-Jan-20 06:28N 44°35' E 037°56'0 0.1
2018-Jan-20 05:58N 44°35' E 037°56'0 0.1
2018-Jan-20 05:28N 44°35' E 037°56'0 0.0
2018-Jan-20 04:58N 44°35' E 037°56'0 0.1
2018-Jan-20 04:28N 44°35' E 037°56'0 0.0
2018-Jan-20 03:58N 44°35' E 037°56'0 0.1
2018-Jan-20 03:28N 44°35' E 037°56'0 0.0
2018-Jan-20 02:58N 44°35' E 037°56'0 0.0
2018-Jan-20 02:28N 44°35' E 037°56'  
Track history (hours):
 
Tides and Currents Weather Stations Pressure Air Temp Water Temp Dewpoint Dewpoint Depression Visibility Wind Speed Wind Dir Waves Ship Positions

Ince Atlantic

Last reported at 2018-Jan-30 02:01 UTC. Time now 2018-Feb-18 20:39 UTC.
Position N 37°34' E 025°55'.
Warning: this ship's position is 19 days out of date.

Length 185 m; draft 9.9 m.

Type: Cargo ship. MMSI: 271000620.

Date/timePositionNaut miles runAvg speedWind from/ knotsBaromVisibWave heightAir tempDewpointWater temp
2018-Jan-30 02:01N 37°34' E 025°55'012.3
2018-Jan-30 02:00N 37°35' E 025°55'244 9.9
2018-Jan-29 01:13N 40°56' E 028°53'210.0
2018-Jan-29 01:00N 40°57' E 028°56'2 0.1
2018-Jan-27 16:53N 40°59' E 028°57'1 3.5
2018-Jan-27 16:30N 40°58' E 028°58'413 8.1
2018-Jan-25 13:33N 44°23' E 037°07'112.4
2018-Jan-25 13:29N 44°23' E 037°08'612.2
2018-Jan-25 13:00N 44°25' E 037°16'612.1
2018-Jan-25 12:30N 44°27' E 037°24'511.0
2018-Jan-25 12:00N 44°29' E 037°31'612.2
2018-Jan-25 11:30N 44°32' E 037°38'612.6
2018-Jan-25 11:00N 44°35' E 037°46'5 9.9
2018-Jan-25 10:30N 44°39' E 037°50'2 3.6
2018-Jan-25 09:59N 44°41' E 037°52'0 0.1
2018-Jan-25 09:29N 44°41' E 037°52'0 0.1
2018-Jan-25 08:59N 44°41' E 037°52'0 0.1
2018-Jan-25 08:29N 44°41' E 037°52'0 0.1
2018-Jan-25 07:59N 44°41' E 037°52'0 0.2
2018-Jan-25 07:29N 44°41' E 037°51'0 0.0
2018-Jan-25 06:59N 44°41' E 037°51'0 0.2
2018-Jan-25 06:29N 44°41' E 037°52'0 0.0
2018-Jan-25 05:59N 44°41' E 037°52'0 0.0
2018-Jan-25 05:29N 44°41' E 037°52'0 0.1
2018-Jan-25 04:59N 44°41' E 037°52'0 0.1
2018-Jan-25 04:29N 44°41' E 037°51'0 0.1
2018-Jan-25 03:59N 44°41' E 037°52'0 0.0
2018-Jan-25 03:29N 44°41' E 037°52'0 0.1
2018-Jan-25 02:59N 44°41' E 037°52'0 0.0
2018-Jan-25 02:29N 44°41' E 037°52'0 0.3
2018-Jan-25 01:59N 44°41' E 037°52'0 0.1
2018-Jan-25 01:29N 44°41' E 037°52'0 0.2
2018-Jan-25 00:59N 44°41' E 037°52'0 0.2
2018-Jan-25 00:30N 44°41' E 037°52'1 2.4
2018-Jan-25 00:00N 44°42' E 037°50'2 5.0
2018-Jan-24 23:30N 44°43' E 037°48'1 1.1
2018-Jan-24 23:00N 44°44' E 037°47'0 0.0
2018-Jan-24 22:29N 44°44' E 037°47'0 0.0
2018-Jan-24 21:59N 44°44' E 037°47'0 0.0
2018-Jan-24 21:29N 44°44' E 037°47'0 0.0
2018-Jan-24 20:59N 44°44' E 037°47'0 0.0
2018-Jan-24 20:29N 44°44' E 037°47'0 0.0
2018-Jan-24 19:59N 44°44' E 037°47'0 0.0
2018-Jan-24 19:29N 44°44' E 037°47'0 0.0
2018-Jan-24 18:59N 44°44' E 037°47'0 0.0
2018-Jan-24 18:29N 44°44' E 037°47'0 0.0
2018-Jan-24 17:59N 44°44' E 037°47'0 0.0
2018-Jan-24 17:29N 44°44' E 037°47'0 0.0
2018-Jan-24 16:59N 44°44' E 037°47'0 0.0
2018-Jan-24 16:29N 44°44' E 037°47'0 0.0
2018-Jan-24 15:59N 44°44' E 037°47'0 0.0
2018-Jan-24 15:29N 44°44' E 037°47'0 0.0
2018-Jan-24 14:58N 44°44' E 037°47'0 0.0
2018-Jan-24 14:30N 44°44' E 037°47'0 0.0
2018-Jan-24 14:00N 44°44' E 037°47'0 0.0
2018-Jan-24 13:30N 44°44' E 037°47'0 0.0
2018-Jan-24 13:00N 44°44' E 037°47'0 0.0
2018-Jan-24 12:30N 44°44' E 037°47'0 0.0
2018-Jan-24 12:00N 44°44' E 037°47'0 0.0
2018-Jan-24 11:30N 44°44' E 037°47'0 0.0
2018-Jan-24 11:00N 44°44' E 037°47'0 0.0
2018-Jan-24 10:30N 44°44' E 037°47'0 0.0
2018-Jan-24 10:00N 44°44' E 037°47'0 0.0
2018-Jan-24 09:30N 44°44' E 037°47'0 0.0
2018-Jan-24 09:00N 44°44' E 037°47'0 0.0
2018-Jan-24 08:30N 44°44' E 037°47'0 0.0
2018-Jan-24 08:00N 44°44' E 037°47'0 0.0
2018-Jan-24 07:30N 44°44' E 037°47'0 0.0
2018-Jan-24 07:00N 44°44' E 037°47'0 0.0
2018-Jan-24 06:30N 44°44' E 037°47'0 0.0
2018-Jan-24 06:00N 44°44' E 037°47'0 0.0
2018-Jan-24 05:30N 44°44' E 037°47'0 0.0
2018-Jan-24 05:00N 44°44' E 037°47'0 0.0
2018-Jan-24 04:30N 44°44' E 037°47'0 0.0
2018-Jan-24 04:00N 44°44' E 037°47'0 0.0
2018-Jan-24 03:30N 44°44' E 037°47'0 0.0
2018-Jan-24 03:00N 44°44' E 037°47'0 0.0
2018-Jan-24 02:30N 44°44' E 037°47'0 0.0
2018-Jan-24 02:00N 44°44' E 037°47'0 0.0
2018-Jan-24 01:30N 44°44' E 037°47'0 0.0
2018-Jan-24 01:00N 44°44' E 037°47'0 0.0
2018-Jan-24 00:30N 44°44' E 037°47'0 0.0
2018-Jan-24 00:00N 44°44' E 037°47'0 0.0
2018-Jan-23 23:30N 44°44' E 037°47'0 0.0
2018-Jan-23 23:00N 44°44' E 037°47'0 0.0
2018-Jan-23 22:30N 44°44' E 037°47'0 0.0
2018-Jan-23 22:00N 44°44' E 037°47'0 0.0
2018-Jan-23 21:27N 44°44' E 037°47'0 0.0
2018-Jan-23 21:00N 44°44' E 037°47'0 0.0
2018-Jan-23 20:30N 44°44' E 037°47'0 0.0
2018-Jan-23 20:00N 44°44' E 037°47'0 0.0
2018-Jan-23 19:30N 44°44' E 037°47'0 0.0
2018-Jan-23 19:00N 44°44' E 037°47'0 0.0
2018-Jan-23 18:30N 44°44' E 037°47'0 0.0
2018-Jan-23 18:00N 44°44' E 037°47'0 0.0
2018-Jan-23 17:30N 44°44' E 037°47'0 0.0
2018-Jan-23 17:00N 44°44' E 037°47'0 0.0
2018-Jan-23 16:30N 44°44' E 037°47'0 0.0
2018-Jan-23 16:00N 44°44' E 037°47'0 0.0
2018-Jan-23 15:30N 44°44' E 037°47'0 0.0
2018-Jan-23 15:00N 44°44' E 037°47'0 0.0
2018-Jan-23 14:27N 44°44' E 037°47'0 0.0
2018-Jan-23 14:00N 44°44' E 037°47'0 0.0
2018-Jan-23 13:30N 44°44' E 037°47'0 0.0
2018-Jan-23 13:00N 44°44' E 037°47'0 0.0
2018-Jan-23 12:30N 44°44' E 037°47'0 0.0
2018-Jan-23 12:00N 44°44' E 037°47'0 0.0
2018-Jan-23 11:30N 44°44' E 037°47'0 0.0
2018-Jan-23 11:00N 44°44' E 037°47'0 0.0
2018-Jan-23 10:30N 44°44' E 037°47'0 0.0
2018-Jan-23 10:00N 44°44' E 037°47'0 0.0
2018-Jan-23 09:30N 44°44' E 037°47'0 0.0
2018-Jan-23 09:00N 44°44' E 037°47'0 0.0
2018-Jan-23 08:30N 44°44' E 037°47'0 0.0
2018-Jan-23 08:00N 44°44' E 037°47'0 0.0
2018-Jan-23 07:30N 44°44' E 037°47'0 0.0
2018-Jan-23 07:00N 44°44' E 037°47'0 0.0
2018-Jan-23 06:30N 44°44' E 037°47'0 0.0
2018-Jan-23 06:00N 44°44' E 037°47'0 0.0
2018-Jan-23 05:30N 44°44' E 037°47'0 0.0
2018-Jan-23 05:00N 44°44' E 037°47'0 0.0
2018-Jan-23 04:30N 44°44' E 037°47'0 0.0
2018-Jan-23 03:57N 44°44' E 037°47'0 0.0
2018-Jan-23 03:27N 44°44' E 037°47'0 0.0
2018-Jan-23 03:00N 44°44' E 037°47'0 0.0
2018-Jan-23 02:30N 44°44' E 037°47'0 0.0
2018-Jan-23 02:00N 44°44' E 037°47'0 0.0
2018-Jan-23 01:30N 44°44' E 037°47'0 0.0
2018-Jan-23 01:00N 44°44' E 037°47'0 0.0
2018-Jan-23 00:30N 44°44' E 037°47'0 0.0
2018-Jan-23 00:00N 44°44' E 037°47'0 0.0
2018-Jan-22 23:30N 44°44' E 037°47'0 0.0
2018-Jan-22 23:00N 44°44' E 037°47'0 0.0
2018-Jan-22 22:30N 44°44' E 037°47'0 0.0
2018-Jan-22 22:00N 44°44' E 037°47'0 0.0
2018-Jan-22 21:30N 44°44' E 037°47'0 0.0
2018-Jan-22 21:00N 44°44' E 037°47'0 0.0
2018-Jan-22 20:30N 44°44' E 037°47'0 0.0
2018-Jan-22 20:00N 44°44' E 037°47'0 0.0
2018-Jan-22 19:30N 44°44' E 037°47'0 0.0
2018-Jan-22 19:00N 44°44' E 037°47'0 0.0
2018-Jan-22 18:30N 44°44' E 037°47'0 0.0
2018-Jan-22 17:57N 44°44' E 037°47'0 0.0
2018-Jan-22 17:30N 44°44' E 037°47'0 0.0
2018-Jan-22 17:00N 44°44' E 037°47'0 0.0
2018-Jan-22 16:30N 44°44' E 037°47'0 0.0
2018-Jan-22 16:00N 44°44' E 037°47'1 2.0
2018-Jan-22 15:31N 44°43' E 037°48'3 6.9
2018-Jan-22 15:00N 44°40' E 037°50'2 4.1
2018-Jan-22 14:30N 44°38' E 037°51'1 1.7
2018-Jan-22 14:00N 44°37' E 037°52'1 2.1
2018-Jan-22 13:30N 44°36' E 037°52'1 2.5
2018-Jan-22 13:00N 44°35' E 037°52'2 4.5
2018-Jan-22 12:30N 44°34' E 037°55'1 1.9
2018-Jan-22 12:00N 44°35' E 037°55'0 0.0
2018-Jan-22 11:30N 44°35' E 037°55'0 0.0
2018-Jan-22 10:57N 44°35' E 037°55'0 0.1
2018-Jan-22 10:30N 44°35' E 037°55'0 0.0
2018-Jan-22 10:00N 44°35' E 037°55'0 0.0
2018-Jan-22 09:30N 44°35' E 037°55'0 0.0
2018-Jan-22 09:00N 44°35' E 037°55'0 0.0
2018-Jan-22 08:30N 44°35' E 037°55'0 0.0
2018-Jan-22 08:00N 44°35' E 037°55'0 0.0
2018-Jan-22 07:30N 44°35' E 037°55'0 0.0
2018-Jan-22 07:00N 44°35' E 037°55'0 0.0
2018-Jan-22 06:30N 44°35' E 037°55'0 0.1
2018-Jan-22 06:00N 44°35' E 037°55'0 0.0
2018-Jan-22 05:30N 44°35' E 037°55'0 0.0
2018-Jan-22 05:00N 44°35' E 037°55'0 0.1
2018-Jan-22 04:30N 44°35' E 037°55'0 0.1
2018-Jan-22 04:00N 44°35' E 037°55'0 0.0
2018-Jan-22 03:30N 44°35' E 037°55'0 0.0
2018-Jan-22 03:00N 44°35' E 037°55'0 0.0
2018-Jan-22 02:30N 44°35' E 037°55'0 0.2
2018-Jan-22 02:00N 44°35' E 037°55'0 0.1
2018-Jan-22 01:30N 44°35' E 037°56'0 0.1
2018-Jan-22 01:00N 44°35' E 037°56'0 0.1
2018-Jan-22 00:30N 44°35' E 037°56'0 0.0
2018-Jan-22 00:00N 44°35' E 037°56'0 0.0
2018-Jan-21 23:30N 44°35' E 037°56'0 0.0
2018-Jan-21 23:00N 44°35' E 037°56'0 0.0
2018-Jan-21 22:30N 44°35' E 037°56'0 0.0
2018-Jan-21 22:00N 44°35' E 037°56'0 0.1
2018-Jan-21 21:30N 44°35' E 037°56'0 0.0
2018-Jan-21 21:00N 44°35' E 037°56'0 0.0
2018-Jan-21 20:30N 44°35' E 037°56'0 0.0
2018-Jan-21 20:00N 44°35' E 037°56'0 0.0
2018-Jan-21 19:30N 44°35' E 037°56'0 0.0
2018-Jan-21 19:00N 44°35' E 037°56'0 0.1
2018-Jan-21 18:30N 44°35' E 037°56'0 0.0
2018-Jan-21 18:00N 44°35' E 037°56'0 0.0
2018-Jan-21 17:30N 44°35' E 037°56'0 0.0
2018-Jan-21 17:00N 44°35' E 037°56'0 0.0
2018-Jan-21 16:27N 44°35' E 037°56'0 0.0
2018-Jan-21 16:00N 44°35' E 037°56'0 0.0
2018-Jan-21 15:30N 44°35' E 037°56'0 0.1
2018-Jan-21 15:00N 44°35' E 037°56'0 0.0
2018-Jan-21 14:30N 44°35' E 037°56'0 0.1
2018-Jan-21 14:00N 44°35' E 037°56'0 0.1
2018-Jan-21 13:30N 44°35' E 037°56'0 0.1
2018-Jan-21 13:00N 44°35' E 037°56'0 0.1
2018-Jan-21 12:30N 44°35' E 037°56'0 0.0
2018-Jan-21 12:00N 44°35' E 037°56'0 0.0
2018-Jan-21 11:30N 44°35' E 037°56'0 0.1
2018-Jan-21 11:00N 44°35' E 037°56'0 0.1
2018-Jan-21 10:30N 44°35' E 037°56'0 0.0
2018-Jan-21 10:00N 44°35' E 037°56'0 0.1
2018-Jan-21 09:30N 44°35' E 037°56'0 0.1
2018-Jan-21 09:00N 44°35' E 037°56'0 0.1
2018-Jan-21 08:30N 44°35' E 037°56'0 0.0
2018-Jan-21 08:00N 44°35' E 037°56'0 0.1
2018-Jan-21 07:30N 44°35' E 037°55'0 0.0
2018-Jan-21 07:00N 44°35' E 037°55'0 0.0
2018-Jan-21 06:30N 44°35' E 037°55'0 0.0
2018-Jan-21 06:00N 44°35' E 037°55'0 0.0
2018-Jan-21 05:30N 44°35' E 037°55'0 0.1
2018-Jan-21 05:00N 44°35' E 037°55'0 0.1
2018-Jan-21 04:30N 44°35' E 037°55'0 0.0
2018-Jan-21 04:00N 44°35' E 037°55'0 0.1
2018-Jan-21 03:30N 44°35' E 037°55'0 0.0
2018-Jan-21 03:00N 44°35' E 037°55'0 0.0
2018-Jan-21 02:30N 44°35' E 037°55'0 0.1
2018-Jan-21 02:00N 44°35' E 037°55'0 0.0
2018-Jan-21 01:30N 44°35' E 037°55'0 0.0
2018-Jan-21 01:00N 44°35' E 037°55'0 0.1
2018-Jan-21 00:30N 44°35' E 037°55'0 0.1
2018-Jan-20 23:58N 44°35' E 037°55'0 0.1
2018-Jan-20 23:28N 44°35' E 037°55'0 0.0
2018-Jan-20 22:58N 44°35' E 037°55'0 0.1
2018-Jan-20 22:28N 44°35' E 037°55'0 0.0
2018-Jan-20 21:58N 44°35' E 037°55'0 0.1
2018-Jan-20 21:28N 44°35' E 037°55'0 0.1
2018-Jan-20 20:58N 44°35' E 037°55'0 0.0
2018-Jan-20 20:28N 44°35' E 037°55'0 0.1
2018-Jan-20 19:58N 44°35' E 037°55'0 0.0
2018-Jan-20 19:28N 44°35' E 037°55'0 0.1
2018-Jan-20 18:58N 44°35' E 037°55'0 0.1
2018-Jan-20 18:28N 44°35' E 037°55'0 0.1
2018-Jan-20 17:58N 44°35' E 037°55'0 0.1
2018-Jan-20 17:28N 44°35' E 037°55'0 0.0
2018-Jan-20 16:58N 44°35' E 037°55'0 0.1
2018-Jan-20 16:28N 44°35' E 037°55'0 0.0
2018-Jan-20 15:58N 44°35' E 037°55'0 0.0
2018-Jan-20 15:28N 44°35' E 037°55'0 0.1
2018-Jan-20 14:58N 44°35' E 037°55'0 0.0
2018-Jan-20 14:28N 44°35' E 037°55'0 0.0
2018-Jan-20 13:58N 44°35' E 037°55'0 0.0
2018-Jan-20 13:28N 44°35' E 037°55'0 0.1
2018-Jan-20 12:58N 44°35' E 037°55'0 0.0
2018-Jan-20 12:25N 44°35' E 037°55'0 0.0
2018-Jan-20 11:58N 44°35' E 037°55'0 0.0
2018-Jan-20 11:28N 44°35' E 037°55'0 0.0
2018-Jan-20 10:58N 44°35' E 037°55'0 0.0
2018-Jan-20 10:28N 44°35' E 037°55'0 0.1
2018-Jan-20 09:58N 44°35' E 037°56'0 0.0
2018-Jan-20 09:28N 44°35' E 037°55'0 0.0
2018-Jan-20 08:58N 44°35' E 037°55'0 0.0
2018-Jan-20 08:28N 44°35' E 037°55'0 0.0
2018-Jan-20 07:58N 44°35' E 037°56'0 0.1
2018-Jan-20 07:28N 44°35' E 037°56'0 0.1
2018-Jan-20 06:58N 44°35' E 037°56'0 0.0
2018-Jan-20 06:28N 44°35' E 037°56'0 0.1
2018-Jan-20 05:58N 44°35' E 037°56'0 0.1
2018-Jan-20 05:28N 44°35' E 037°56'0 0.0
2018-Jan-20 04:58N 44°35' E 037°56'0 0.1
2018-Jan-20 04:28N 44°35' E 037°56'0 0.0
2018-Jan-20 03:58N 44°35' E 037°56'0 0.1
2018-Jan-20 03:28N 44°35' E 037°56'0 0.0
2018-Jan-20 02:58N 44°35' E 037°56'0 0.0
2018-Jan-20 02:28N 44°35' E 037°56'  

Dump ship's entire track history